Time;durP1;ratioP1;P1;durP2;ratioP2;P2;SDS_P1;SDS_P2;PMS_P1;PMS_P2;Temp;Humidity;BMP_temperature;BMP_pressure;BME280_temperature;BME280_humidity;BME280_pressure;Samples;Min_cycle;Max_cycle;Signal;HPM_P1;HPM_P2
2022/04/25 00:01:04;;;;;;;49.33;31.27;;;8.10;99.90;;;;;;5048157;28;20033;-49
2022/04/25 00:03:29;;;;;;;52.35;31.05;;;8.10;99.90;;;;;;5047960;28;20393;-52
2022/04/25 00:05:56;;;;;;;53.00;32.90;;;8.10;99.90;;;;;;5048225;28;20657;-52
2022/04/25 00:08:21;;;;;;;49.72;31.77;;;8.10;99.90;;;;;;5047949;28;20779;-51
2022/04/25 00:10:47;;;;;;;49.13;30.83;;;8.10;99.90;;;;;;5048056;28;20061;-52
2022/04/25 00:13:14;;;;;;;56.22;33.58;;;8.20;99.90;;;;;;5047693;28;20472;-52
2022/04/25 00:15:40;;;;;;;52.97;32.40;;;8.10;99.90;;;;;;5047648;28;20029;-50
2022/04/25 00:18:06;;;;;;;59.17;35.50;;;8.20;99.90;;;;;;5047900;28;20033;-51
2022/04/25 00:20:32;;;;;;;54.05;35.28;;;8.20;99.90;;;;;;5048012;28;20059;-52
2022/04/25 00:23:00;;;;;;;55.55;34.40;;;8.10;99.90;;;;;;5047685;28;20053;-52
2022/04/25 00:25:28;;;;;;;53.10;32.72;;;8.10;99.90;;;;;;5045694;28;20448;-50
2022/04/25 00:27:54;;;;;;;45.42;30.20;;;8.00;99.90;;;;;;5051340;28;20388;-49
2022/04/25 00:30:20;;;;;;;54.15;33.88;;;8.10;99.90;;;;;;5051490;28;20029;-51
2022/04/25 00:32:46;;;;;;;50.75;32.05;;;8.10;99.90;;;;;;5051515;28;20025;-50
2022/04/25 00:35:12;;;;;;;48.22;30.70;;;8.00;99.90;;;;;;5051521;28;20041;-50
2022/04/25 00:37:37;;;;;;;56.25;31.65;;;7.90;99.90;;;;;;5050972;28;20049;-51
2022/04/25 00:40:03;;;;;;;51.20;31.92;;;7.90;99.90;;;;;;5051568;28;20078;-52
2022/04/25 00:42:29;;;;;;;52.17;31.42;;;7.80;99.90;;;;;;5051126;28;20033;-51
2022/04/25 00:44:57;;;;;;;56.03;31.60;;;7.80;99.90;;;;;;5050989;28;20122;-51
2022/04/25 00:47:24;;;;;;;46.95;28.88;;;7.80;99.90;;;;;;5051432;28;20040;-51
2022/04/25 00:49:49;;;;;;;50.20;29.45;;;7.80;99.90;;;;;;5033388;28;20029;-52
2022/04/25 00:52:15;;;;;;;51.40;28.55;;;7.70;99.90;;;;;;5051227;28;20079;-51
2022/04/25 00:54:41;;;;;;;47.70;28.40;;;7.60;99.90;;;;;;5050915;28;20049;-51
2022/04/25 00:57:07;;;;;;;56.17;33.33;;;7.60;99.90;;;;;;5033050;28;20057;-53
2022/04/25 00:59:33;;;;;;;53.97;31.83;;;7.50;99.90;;;;;;5050740;28;20029;-53
2022/04/25 01:01:59;;;;;;;49.50;31.85;;;7.50;99.90;;;;;;5044963;28;20591;-52
2022/04/25 01:04:25;;;;;;;54.33;32.58;;;7.50;99.90;;;;;;5013168;28;20049;-51
2022/04/25 01:06:50;;;;;;;52.15;31.75;;;7.40;99.90;;;;;;5030822;28;20031;-51
2022/04/25 01:09:16;;;;;;;55.47;31.90;;;7.40;99.90;;;;;;5030963;28;20436;-50
2022/04/25 01:11:42;;;;;;;55.83;32.72;;;7.40;99.90;;;;;;5031081;28;20037;-52
2022/04/25 01:14:15;;;;;;;53.72;32.33;;;7.40;99.90;;;;;;5030739;28;20026;-53
2022/04/25 01:16:42;;;;;;;51.90;30.92;;;7.40;99.90;;;;;;5030941;28;20029;-53
2022/04/25 01:19:08;;;;;;;51.75;29.35;;;7.50;99.90;;;;;;5046318;28;20021;-51
2022/04/25 01:21:58;;;;;;;41.83;24.92;;;7.30;99.90;;;;;;5050384;28;20028;-52
2022/04/25 01:27:16;;;;;;;44.50;27.45;;;7.40;99.90;;;;;;5048010;28;20396;-51
2022/04/25 01:29:43;;;;;;;45.58;26.80;;;7.50;99.90;;;;;;5050374;28;20029;-50
2022/04/25 01:32:09;;;;;;;45.88;27.05;;;7.30;99.90;;;;;;5032491;28;20361;-50
2022/04/25 01:34:39;;;;;;;44.55;25.75;;;7.40;99.90;;;;;;5032550;28;20055;-50
2022/04/25 01:37:06;;;;;;;39.08;24.73;;;7.30;99.90;;;;;;5031234;28;20400;-52
2022/04/25 01:39:54;;;;;;;45.38;27.80;;;7.20;99.90;;;;;;5050306;28;20032;-50
2022/04/25 01:42:21;;;;;;;43.97;27.90;;;7.20;99.90;;;;;;5050543;28;20025;-51
2022/04/25 01:44:47;;;;;;;45.25;26.10;;;7.20;99.90;;;;;;5050226;28;20037;-52
2022/04/25 01:47:13;;;;;;;42.08;26.67;;;7.00;99.90;;;;;;5050508;28;20029;-51
2022/04/25 01:49:39;;;;;;;44.17;27.98;;;7.10;99.90;;;;;;5050086;28;20048;-51
2022/04/25 01:52:14;;;;;;;52.35;28.38;;;7.00;99.90;;;;;;5050197;28;20033;-51
2022/04/25 01:54:40;;;;;;;51.92;31.27;;;6.90;99.90;;;;;;5049918;28;20025;-49
2022/04/25 01:57:06;;;;;;;48.72;30.95;;;6.90;99.90;;;;;;5050077;28;20028;-50
2022/04/25 01:59:31;;;;;;;47.25;29.17;;;7.00;99.90;;;;;;5050082;28;20475;-50
2022/04/25 02:01:59;;;;;;;51.42;33.35;;;7.00;99.90;;;;;;5049494;28;20025;-51
2022/04/25 02:04:25;;;;;;;57.10;35.38;;;7.00;99.90;;;;;;5032148;28;20045;-51
2022/04/25 02:06:51;;;;;;;57.25;36.47;;;7.00;99.90;;;;;;5049704;28;20488;-51
2022/04/25 02:09:17;;;;;;;71.32;40.75;;;7.00;99.90;;;;;;5049744;28;20074;-50
2022/04/25 02:11:43;;;;;;;71.32;42.70;;;7.00;99.90;;;;;;5049619;28;20082;-51
2022/04/25 02:14:08;;;;;;;66.57;40.28;;;7.10;99.90;;;;;;5031817;28;20033;-50
2022/04/25 02:16:34;;;;;;;74.32;40.65;;;7.10;99.90;;;;;;5041708;28;20036;-52
2022/04/25 02:19:00;;;;;;;94.70;49.28;;;7.10;99.90;;;;;;5047152;28;20104;-52
2022/04/25 02:21:26;;;;;;;84.72;44.00;;;7.00;99.90;;;;;;5049928;28;20028;-51
2022/04/25 02:23:51;;;;;;;74.82;40.00;;;7.00;99.90;;;;;;5049227;28;20036;-50
2022/04/25 02:26:17;;;;;;;78.57;40.35;;;7.00;99.90;;;;;;5046698;28;20116;-52
2022/04/25 02:28:43;;;;;;;79.20;42.53;;;6.90;99.90;;;;;;5048412;28;20370;-52
2022/04/25 02:31:09;;;;;;;73.90;40.78;;;7.00;99.90;;;;;;5049483;28;20119;-52
2022/04/25 02:33:35;;;;;;;69.53;42.65;;;6.90;99.90;;;;;;5049175;28;20029;-51
2022/04/25 02:36:07;;;;;;;73.53;45.78;;;7.00;99.90;;;;;;5049241;28;20028;-50
2022/04/25 02:38:34;;;;;;;67.18;43.53;;;7.00;99.90;;;;;;5049424;28;20041;-50
2022/04/25 02:41:06;;;;;;;65.80;40.58;;;6.80;99.90;;;;;;5049279;28;20028;-51
2022/04/25 02:43:32;;;;;;;65.35;40.45;;;6.90;99.90;;;;;;5049346;28;20032;-51
2022/04/25 02:45:58;;;;;;;66.40;38.95;;;6.90;99.90;;;;;;5049147;28;20593;-53
2022/04/25 02:48:24;;;;;;;67.68;38.75;;;7.00;99.90;;;;;;5048868;28;20595;-51
2022/04/25 02:50:50;;;;;;;67.07;39.25;;;7.00;99.90;;;;;;5030853;28;20040;-52
2022/04/25 02:53:15;;;;;;;85.20;47.90;;;6.90;99.90;;;;;;5049440;28;20025;-53
2022/04/25 02:55:41;;;;;;;72.38;44.47;;;6.80;99.90;;;;;;5049229;28;20383;-52
2022/04/25 02:58:09;;;;;;;80.60;43.85;;;6.70;99.90;;;;;;5049136;28;20028;-50
2022/04/25 03:00:35;;;;;;;75.90;43.15;;;6.70;99.90;;;;;;5049187;28;20044;-54
2022/04/25 03:03:01;;;;;;;75.97;43.15;;;6.70;99.90;;;;;;5048504;28;20515;-53
2022/04/25 03:05:27;;;;;;;85.28;45.22;;;6.70;99.90;;;;;;5048796;28;20044;-53
2022/04/25 03:07:52;;;;;;;81.25;45.38;;;6.60;99.90;;;;;;5048858;28;20606;-52
2022/04/25 03:10:18;;;;;;;86.25;44.72;;;6.60;99.90;;;;;;5048951;28;20024;-50
2022/04/25 03:12:44;;;;;;;102.65;53.60;;;6.60;99.90;;;;;;5048568;28;20088;-53
2022/04/25 03:15:09;;;;;;;92.50;47.72;;;6.60;99.90;;;;;;5048521;28;20033;-50
2022/04/25 03:17:35;;;;;;;86.47;45.30;;;6.40;99.90;;;;;;5048644;28;20025;-52
2022/04/25 03:20:01;;;;;;;76.72;43.40;;;6.50;99.90;;;;;;5048363;28;20106;-51
2022/04/25 03:22:27;;;;;;;76.55;41.60;;;6.50;99.90;;;;;;5048769;28;20025;-52
2022/04/25 03:24:53;;;;;;;72.50;40.97;;;6.40;99.90;;;;;;5030820;28;20045;-52
2022/04/25 03:27:18;;;;;;;76.30;42.53;;;6.40;99.90;;;;;;5045691;28;20366;-51
2022/04/25 03:29:44;;;;;;;66.10;39.35;;;6.30;99.90;;;;;;5030310;28;20512;-50
2022/04/25 03:32:10;;;;;;;68.80;37.38;;;6.30;99.90;;;;;;5048729;28;20031;-51
2022/04/25 03:34:37;;;;;;;64.53;38.58;;;6.30;99.90;;;;;;5048166;28;20486;-53
2022/04/25 03:37:03;;;;;;;72.65;39.45;;;6.30;99.90;;;;;;5048543;28;20053;-51
2022/04/25 03:39:29;;;;;;;64.95;38.72;;;6.30;99.90;;;;;;5040500;28;20547;-52
2022/04/25 03:41:55;;;;;;;66.95;38.53;;;6.40;99.90;;;;;;5036002;28;20091;-51
2022/04/25 03:44:21;;;;;;;62.15;37.72;;;6.40;99.90;;;;;;5038668;28;20128;-52
2022/04/25 03:46:47;;;;;;;60.63;36.45;;;6.40;99.90;;;;;;5034524;28;20440;-51
2022/04/25 03:49:13;;;;;;;57.92;34.60;;;6.30;99.90;;;;;;5021486;28;20533;-52
2022/04/25 03:51:40;;;;;;;59.35;35.63;;;6.40;99.90;;;;;;5048550;28;20029;-52
2022/04/25 03:54:06;;;;;;;60.63;36.55;;;6.30;99.90;;;;;;5048606;28;20064;-50
2022/04/25 03:59:16;;;;;;;55.20;32.42;;;6.30;99.90;;;;;;5028497;28;20159;-53
2022/04/25 04:01:42;;;;;;;52.67;28.58;;;6.20;99.90;;;;;;5031053;28;20124;-52
2022/04/25 04:04:07;;;;;;;52.65;29.48;;;6.10;99.90;;;;;;5032184;28;20712;-52
2022/04/25 04:06:33;;;;;;;44.78;25.85;;;6.10;99.90;;;;;;5032326;28;20383;-52
2022/04/25 04:09:44;;;;;;;43.60;25.63;;;6.20;99.90;;;;;;5032525;28;20036;-51
2022/04/25 04:11:48;;;;;;;45.80;28.02;;;6.10;99.90;;;;;;5035553;28;20028;-53
2022/04/25 04:14:14;;;;;;;47.92;28.20;;;6.10;99.90;;;;;;5052378;28;20383;-53
2022/04/25 04:16:41;;;;;;;50.50;31.20;;;6.10;99.90;;;;;;5052237;28;20159;-52
2022/04/25 04:19:07;;;;;;;;;;;6.10;99.90;;;;;;5052440;28;21017;-52
2022/04/25 04:21:33;;;;;;;63.80;34.75;;;6.20;99.90;;;;;;5051959;28;19908;-53
2022/04/25 04:23:59;;;;;;;66.38;41.78;;;6.20;99.90;;;;;;5051878;28;20036;-51
2022/04/25 04:26:25;;;;;;;70.80;44.10;;;6.20;99.90;;;;;;5051939;28;20044;-52
2022/04/25 04:28:50;;;;;;;81.60;44.75;;;6.20;99.90;;;;;;5051446;28;20028;-53
2022/04/25 04:31:16;;;;;;;68.65;42.30;;;6.30;99.90;;;;;;5052115;28;20579;-51
2022/04/25 04:33:41;;;;;;;65.15;39.63;;;6.30;99.90;;;;;;5025940;28;20029;-51
2022/04/25 04:36:19;;;;;;;64.65;38.60;;;6.30;99.90;;;;;;5032211;28;20021;-53
2022/04/25 04:38:45;;;;;;;63.55;40.08;;;6.30;99.90;;;;;;5031914;28;20053;-53
2022/04/25 04:41:12;;;;;;;65.30;40.67;;;6.20;99.90;;;;;;5014117;28;20030;-52
2022/04/25 04:43:38;;;;;;;63.05;41.20;;;6.20;99.90;;;;;;5033709;28;20158;-52
2022/04/25 04:46:04;;;;;;;62.67;36.85;;;6.20;99.90;;;;;;5031534;28;20079;-52
2022/04/25 04:48:29;;;;;;;66.43;39.30;;;6.30;99.90;;;;;;5033781;28;20029;-53
2022/04/25 04:50:56;;;;;;;77.65;45.15;;;6.30;99.90;;;;;;5031305;28;20055;-52
2022/04/25 04:53:22;;;;;;;84.80;50.65;;;6.30;99.90;;;;;;5031080;28;20623;-52
2022/04/25 04:55:49;;;;;;;81.13;49.00;;;6.40;99.90;;;;;;5031600;28;20080;-51
2022/04/25 04:58:14;;;;;;;80.90;46.30;;;6.40;99.90;;;;;;5031722;28;20038;-54
2022/04/25 05:00:44;;;;;;;85.20;49.17;;;6.40;99.90;;;;;;5031408;28;20500;-52
2022/04/25 05:03:13;;;;;;;75.63;45.85;;;6.50;99.90;;;;;;5031071;28;20025;-53
2022/04/25 05:05:40;;;;;;;85.35;47.70;;;6.50;99.90;;;;;;5031260;28;20037;-52
2022/04/25 05:08:05;;;;;;;77.45;47.50;;;6.60;99.90;;;;;;5031327;28;20110;-52
2022/04/25 05:10:31;;;;;;;84.57;47.88;;;6.60;99.90;;;;;;5031316;28;20053;-52
2022/04/25 05:12:57;;;;;;;74.60;45.88;;;6.80;99.90;;;;;;5044077;28;20036;-52
2022/04/25 05:15:24;;;;;;;76.90;46.97;;;6.90;99.90;;;;;;5050739;28;20095;-52
2022/04/25 05:17:52;;;;;;;76.20;45.80;;;7.10;99.90;;;;;;5038571;28;20155;-52
2022/04/25 05:20:20;;;;;;;74.68;45.35;;;7.10;99.90;;;;;;5046388;28;20472;-53
2022/04/25 05:22:47;;;;;;;74.13;45.95;;;7.30;99.90;;;;;;5031602;28;20029;-52
2022/04/25 05:25:14;;;;;;;;;;;7.30;99.90;;;;;;5050422;28;20048;-53
2022/04/25 05:27:41;;;;;;;91.60;54.25;;;7.40;99.90;;;;;;5049673;28;20374;-51
2022/04/25 05:30:07;;;;;;;86.78;53.30;;;7.40;99.90;;;;;;5050289;28;20051;-53
2022/04/25 05:32:46;;;;;;;87.40;52.90;;;7.40;99.90;;;;;;5050776;28;20056;-53
2022/04/25 05:35:16;;;;;;;84.90;50.90;;;7.50;99.90;;;;;;5032063;28;20546;-52
2022/04/25 05:37:43;;;;;;;90.22;56.80;;;7.60;99.90;;;;;;5030233;28;20444;-51
2022/04/25 05:40:09;;;;;;;99.77;59.37;;;7.60;99.90;;;;;;5029702;28;20033;-51
2022/04/25 05:42:35;;;;;;;86.63;53.30;;;7.70;99.90;;;;;;5013057;28;20025;-52
2022/04/25 05:45:02;;;;;;;86.18;50.95;;;7.70;99.90;;;;;;5030619;28;20042;-50
2022/04/25 05:47:27;;;;;;;83.32;49.17;;;7.70;99.90;;;;;;5029911;28;20029;-52
2022/04/25 05:52:37;;;;;;;94.93;54.63;;;7.80;99.90;;;;;;5030900;28;20080;-52
2022/04/25 05:55:04;;;;;;;85.65;50.75;;;7.90;99.90;;;;;;5029293;28;20481;-52
2022/04/25 05:57:29;;;;;;;81.40;45.92;;;8.00;99.90;;;;;;5029008;28;20025;-51
2022/04/25 05:59:55;;;;;;;84.75;52.22;;;8.10;99.90;;;;;;5029422;28;20036;-51
2022/04/25 06:02:20;;;;;;;85.45;51.08;;;8.20;99.90;;;;;;5045300;28;20021;-52
2022/04/25 06:04:46;;;;;;;75.13;47.92;;;8.30;99.90;;;;;;5047742;28;20056;-51
2022/04/25 06:07:12;;;;;;;74.03;46.33;;;8.40;99.90;;;;;;5047609;28;20025;-51
2022/04/25 06:09:37;;;;;;;72.95;44.55;;;8.60;99.90;;;;;;5049660;28;20158;-51
2022/04/25 06:12:04;;;;;;;77.53;46.15;;;8.70;99.90;;;;;;5049946;28;20021;-52
2022/04/25 06:14:32;;;;;;;72.95;44.25;;;8.80;99.90;;;;;;5049814;28;20448;-51
2022/04/25 06:17:01;;;;;;;73.57;44.17;;;9.00;99.90;;;;;;5049712;28;20025;-51
2022/04/25 06:19:27;;;;;;;64.70;40.80;;;9.10;99.90;;;;;;5049054;28;20548;-51
2022/04/25 06:21:53;;;;;;;63.78;38.65;;;9.20;99.90;;;;;;5049823;28;20036;-51
2022/04/25 06:24:19;;;;;;;63.20;41.45;;;9.20;99.90;;;;;;5031042;28;20053;-51
2022/04/25 06:26:49;;;;;;;66.88;40.70;;;9.30;99.90;;;;;;5049648;28;20107;-51
2022/04/25 06:29:15;;;;;;;57.75;35.78;;;9.40;99.90;;;;;;5049911;28;20805;-51
2022/04/25 06:31:42;;;;;;;63.17;39.05;;;9.40;99.90;;;;;;5050124;28;20029;-53
2022/04/25 06:34:11;;;;;;;64.72;41.95;;;9.40;99.90;;;;;;5049677;28;20041;-51
2022/04/25 06:36:37;;;;;;;67.45;45.13;;;9.50;99.90;;;;;;5049303;28;20522;-55
2022/04/25 06:39:03;;;;;;;73.70;44.90;;;9.50;99.90;;;;;;5040998;28;20061;-50
2022/04/25 06:41:30;;;;;;;72.40;47.77;;;9.50;99.90;;;;;;5029682;28;20021;-49
2022/04/25 06:43:58;;;;;;;75.72;48.17;;;9.60;99.90;;;;;;5029568;28;20025;-55
2022/04/25 06:46:29;;;;;;;78.40;53.25;;;9.60;99.90;;;;;;5011701;28;20041;-53
2022/04/25 06:51:40;;;;;;;68.35;44.25;;;9.70;99.90;;;;;;5029661;28;20096;-51
2022/04/25 06:54:06;;;;;;;63.20;43.13;;;9.80;99.90;;;;;;5029393;28;20120;-52
2022/04/25 06:56:32;;;;;;;60.93;40.03;;;9.80;99.90;;;;;;5011310;28;20013;-51
2022/04/25 06:58:57;;;;;;;68.68;43.40;;;9.80;99.90;;;;;;5028943;28;20033;-50
2022/04/25 07:01:24;;;;;;;57.90;39.03;;;9.90;99.90;;;;;;5029117;28;20044;-52
2022/04/25 07:03:50;;;;;;;62.20;40.00;;;9.90;99.90;;;;;;5020279;28;20465;-52
2022/04/25 07:06:16;;;;;;;62.00;40.30;;;10.00;99.90;;;;;;5035800;28;20025;-51
2022/04/25 07:08:41;;;;;;;38.72;26.65;;;10.00;99.90;;;;;;5039410;28;20072;-50
2022/04/25 07:11:07;;;;;;;47.78;28.10;;;10.10;99.90;;;;;;5019859;28;20091;-53
2022/04/25 07:13:33;;;;;;;40.28;24.33;;;10.20;99.90;;;;;;5042790;28;20177;-53
2022/04/25 07:15:59;;;;;;;43.63;26.77;;;10.30;99.90;;;;;;5037242;28;20104;-53
2022/04/25 07:18:24;;;;;;;38.30;25.33;;;10.40;99.90;;;;;;5036871;28;20132;-52
2022/04/25 07:20:50;;;;;;;44.47;27.30;;;10.50;99.90;;;;;;5045253;28;20074;-51
2022/04/25 07:28:53;;;;;;;32.15;22.30;;;10.70;99.90;;;;;;5048885;28;20130;-51
2022/04/25 07:31:19;;;;;;;32.83;21.40;;;10.60;99.90;;;;;;5032298;28;20033;-50
2022/04/25 07:33:46;;;;;;;34.63;22.27;;;10.80;99.90;;;;;;5048638;28;20017;-53
2022/04/25 07:36:14;;;;;;;38.40;24.65;;;10.80;99.90;;;;;;5050535;28;20033;-51
2022/04/25 07:38:41;;;;;;;40.72;24.10;;;10.90;99.90;;;;;;5034791;28;20048;-52
2022/04/25 07:41:09;;;;;;;40.22;25.23;;;10.90;99.90;;;;;;5052603;28;20037;-51
2022/04/25 07:43:35;;;;;;;34.20;23.40;;;11.00;99.90;;;;;;5052575;28;20104;-51
2022/04/25 07:46:02;;;;;;;36.30;23.73;;;10.90;99.90;;;;;;5034534;28;20037;-53
2022/04/25 07:48:28;;;;;;;38.83;25.48;;;11.00;99.90;;;;;;5034705;28;20017;-50
2022/04/25 07:50:53;;;;;;;39.22;26.13;;;11.10;99.90;;;;;;5052538;28;20040;-49
2022/04/25 07:53:19;;;;;;;36.55;24.15;;;11.10;99.90;;;;;;5051748;28;20101;-52
2022/04/25 07:55:45;;;;;;;36.58;25.23;;;11.10;99.90;;;;;;5052409;28;20492;-50
2022/04/25 07:58:11;;;;;;;39.55;26.17;;;11.20;99.90;;;;;;5052451;28;20083;-52
2022/04/25 08:00:40;;;;;;;39.95;25.80;;;11.20;99.90;;;;;;5052478;28;20025;-52
2022/04/25 08:03:06;;;;;;;38.67;25.30;;;11.20;99.90;;;;;;5052182;28;20078;-52
2022/04/25 08:05:32;;;;;;;39.13;25.92;;;11.20;99.90;;;;;;5052340;28;20128;-52
2022/04/25 08:07:58;;;;;;;43.80;24.60;;;11.30;99.90;;;;;;5052371;28;20184;-51
2022/04/25 08:10:23;;;;;;;40.00;25.85;;;11.20;99.90;;;;;;5052231;28;20112;-52
2022/04/25 08:18:18;;;;;;;38.92;25.90;;;11.20;99.90;;;;;;5052376;28;20039;-51
2022/04/25 08:20:44;;;;;;;39.30;25.00;;;11.20;99.90;;;;;;5055050;28;20435;-52
2022/04/25 08:23:13;;;;;;;39.75;25.25;;;11.20;99.90;;;;;;5050982;28;20033;-52
2022/04/25 08:25:41;;;;;;;37.85;26.67;;;11.30;99.90;;;;;;5042428;28;20125;-51
2022/04/25 08:28:08;;;;;;;43.70;26.27;;;11.20;99.90;;;;;;5016205;28;20079;-53
2022/04/25 08:30:34;;;;;;;40.60;27.38;;;11.30;99.90;;;;;;5057006;28;20396;-52
2022/04/25 08:33:00;;;;;;;39.22;26.15;;;11.30;99.90;;;;;;5040393;28;20108;-51
2022/04/25 08:35:27;;;;;;;41.70;26.85;;;11.40;99.90;;;;;;5040161;28;20467;-52
2022/04/25 08:37:54;;;;;;;37.30;24.73;;;11.40;99.90;;;;;;5041556;28;20558;-52
2022/04/25 08:40:21;;;;;;;43.72;27.05;;;11.50;99.90;;;;;;5040132;28;20124;-52
2022/04/25 08:42:46;;;;;;;43.47;26.52;;;11.60;99.90;;;;;;5039978;28;20393;-53
2022/04/25 08:45:13;;;;;;;36.53;25.15;;;11.70;99.90;;;;;;5041250;28;20087;-51
2022/04/25 08:47:49;;;;;;;38.35;26.35;;;11.80;99.90;;;;;;5039814;28;20026;-50
2022/04/25 08:50:19;;;;;;;39.20;24.75;;;11.80;99.90;;;;;;5042059;28;20493;-51
2022/04/25 08:52:46;;;;;;;38.53;25.60;;;11.90;99.90;;;;;;5039937;28;20104;-50
2022/04/25 08:55:14;;;;;;;40.50;24.87;;;11.90;99.90;;;;;;5041549;28;20134;-52
2022/04/25 08:57:42;;;;;;;36.00;25.13;;;11.80;99.90;;;;;;5039663;28;20740;-50
2022/04/25 09:00:08;;;;;;;38.40;25.00;;;11.90;99.90;;;;;;5039776;28;20139;-50
2022/04/25 09:02:39;;;;;;;34.83;24.17;;;12.00;99.90;;;;;;5047892;28;20028;-50
2022/04/25 09:05:12;;;;;;;41.03;24.05;;;12.10;99.90;;;;;;5050994;28;20047;-51
2022/04/25 09:07:39;;;;;;;32.08;22.15;;;12.10;99.90;;;;;;5051000;28;20060;-52
2022/04/25 09:10:08;;;;;;;30.55;20.02;;;12.30;99.90;;;;;;5051013;28;20035;-51
2022/04/25 09:12:38;;;;;;;31.55;22.63;;;12.40;99.90;;;;;;5040696;28;20072;-52
2022/04/25 09:15:05;;;;;;;42.00;26.50;;;12.60;99.90;;;;;;5031627;28;20025;-53
2022/04/25 09:17:32;;;;;;;;;;;12.70;99.90;;;;;;5040389;28;20024;-52
2022/04/25 09:19:58;;;;;;;44.90;29.30;;;12.80;99.90;;;;;;5041035;28;19966;-52
2022/04/25 09:22:32;;;;;;;47.95;33.05;;;12.90;99.90;;;;;;5041137;28;20021;-50
2022/04/25 09:25:09;;;;;;;39.90;27.55;;;12.90;99.90;;;;;;5040699;28;20044;-50
2022/04/25 09:27:36;;;;;;;47.80;32.95;;;12.80;99.90;;;;;;5041098;28;20025;-51
2022/04/25 09:30:15;;;;;;;45.22;32.65;;;12.80;99.90;;;;;;5041469;28;20065;-50
2022/04/25 09:32:40;;;;;;;57.45;35.17;;;12.70;99.90;;;;;;5029330;28;20095;-53
2022/04/25 09:35:28;;;;;;;50.72;34.83;;;12.80;99.90;;;;;;5030769;28;20029;-50
2022/04/25 09:37:54;;;;;;;47.40;34.55;;;12.70;99.90;;;;;;5030576;28;20054;-51
2022/04/25 09:40:22;;;;;;;50.22;33.80;;;12.70;99.90;;;;;;5030767;28;20124;-50
2022/04/25 09:43:02;;;;;;;52.35;35.92;;;12.70;99.90;;;;;;5030561;28;20022;-51
2022/04/25 09:45:28;;;;;;;58.08;35.60;;;12.70;99.90;;;;;;5030456;28;20826;-52
2022/04/25 09:47:55;;;;;;;53.28;34.35;;;12.70;99.90;;;;;;5030609;28;20056;-51
2022/04/25 09:50:20;;;;;;;50.60;32.50;;;12.50;99.90;;;;;;5030559;28;20040;-51
2022/04/25 09:52:55;;;;;;;53.50;34.08;;;12.50;99.90;;;;;;5012347;28;20026;-51
2022/04/25 09:55:22;;;;;;;42.15;28.15;;;12.50;99.90;;;;;;5030435;28;20029;-52
2022/04/25 09:57:50;;;;;;;32.10;21.58;;;12.40;99.90;;;;;;5029836;28;20087;-52
2022/04/25 10:00:38;;;;;;;39.03;23.10;;;12.40;99.90;;;;;;5030408;28;20044;-52
2022/04/25 10:03:08;;;;;;;38.13;23.42;;;12.30;99.90;;;;;;5030420;28;20048;-52
2022/04/25 10:05:43;;;;;;;42.08;23.23;;;12.20;99.90;;;;;;5030339;28;20087;-51
2022/04/25 10:08:12;;;;;;;36.53;23.90;;;12.10;99.90;;;;;;5030033;28;20021;-52
2022/04/25 10:10:50;;;;;;;38.92;24.50;;;12.10;99.90;;;;;;5030143;28;20034;-50
2022/04/25 10:13:16;;;;;;;35.20;23.75;;;11.90;99.90;;;;;;5045685;28;20096;-51
2022/04/25 10:15:44;;;;;;;36.22;22.88;;;11.90;99.90;;;;;;5050171;28;20335;-51
2022/04/25 10:18:10;;;;;;;40.72;23.83;;;11.70;99.90;;;;;;5049799;28;20028;-49
2022/04/25 10:20:37;;;;;;;31.00;19.40;;;11.70;99.90;;;;;;5050039;28;20032;-49
2022/04/25 10:23:05;;;;;;;30.27;18.05;;;11.60;99.90;;;;;;5049515;28;20510;-51
2022/04/25 10:25:31;;;;;;;32.60;21.70;;;11.30;99.90;;;;;;5049857;28;20056;-52
2022/04/25 10:28:01;;;;;;;24.75;15.07;;;11.20;99.90;;;;;;5049957;28;20021;-51
2022/04/25 10:30:33;;;;;;;20.33;13.48;;;11.10;99.90;;;;;;5049659;28;20056;-53
2022/04/25 10:35:47;;;;;;;23.00;14.65;;;11.00;99.90;;;;;;5089940;22;20061;-51
2022/04/25 10:38:49;;;;;;;25.15;14.35;;;11.00;99.90;;;;;;5048951;28;20025;-53
2022/04/25 10:44:26;;;;;;;28.85;18.00;;;11.10;99.90;;;;;;5049372;28;20664;-52
2022/04/25 10:47:07;;;;;;;30.13;19.13;;;11.10;99.90;;;;;;5049356;28;20033;-52
2022/04/25 10:49:35;;;;;;;30.85;20.52;;;11.10;99.90;;;;;;5030730;28;20036;-52
2022/04/25 10:52:03;;;;;;;36.20;24.38;;;11.20;99.90;;;;;;5048955;28;20415;-52
2022/04/25 10:54:47;;;;;;;38.47;25.52;;;11.30;99.90;;;;;;5049006;28;20040;-51
2022/04/25 10:57:16;;;;;;;52.60;29.50;;;11.30;99.90;;;;;;5014495;28;20523;-52
2022/04/25 10:59:43;;;;;;;48.55;30.75;;;11.40;99.90;;;;;;5048858;28;20029;-52
2022/04/25 11:02:23;;;;;;;50.72;32.05;;;11.50;99.90;;;;;;5048614;28;20021;-51
2022/04/25 11:05:09;;;;;;;48.95;30.88;;;11.70;99.90;;;;;;5048621;28;20037;-52
2022/04/25 11:07:37;;;;;;;35.75;22.25;;;11.80;99.90;;;;;;5034732;28;20033;-52
2022/04/25 11:10:03;;;;;;;;;;;11.90;99.90;;;;;;5031618;28;20036;-51
2022/04/25 11:12:55;;;;;;;29.55;18.58;;;12.00;99.90;;;;;;5044391;28;19912;-53
2022/04/25 11:15:43;;;;;;;28.25;18.40;;;12.00;99.90;;;;;;5028777;28;20029;-52
2022/04/25 11:18:33;;;;;;;28.00;17.17;;;12.20;99.90;;;;;;5028767;28;20024;-52
2022/04/25 11:21:11;;;;;;;32.08;19.98;;;12.50;99.90;;;;;;5028653;28;20047;-52
2022/04/25 11:23:44;;;;;;;40.78;27.08;;;12.70;99.90;;;;;;5033172;28;20546;-53
2022/04/25 11:26:30;;;;;;;50.17;33.85;;;12.90;99.90;;;;;;5048560;28;20045;-52
2022/04/25 11:29:01;;;;;;;43.97;29.50;;;13.00;99.90;;;;;;5034456;28;20095;-50
2022/04/25 11:31:33;;;;;;;37.85;26.90;;;13.00;99.90;;;;;;5048095;28;20518;-52
2022/04/25 11:34:03;;;;;;;32.72;23.13;;;13.00;99.90;;;;;;5048098;28;20091;-52
2022/04/25 11:36:31;;;;;;;35.58;23.05;;;12.80;99.90;;;;;;5048022;28;20037;-49
2022/04/25 11:41:46;;;;;;;30.30;20.92;;;12.60;99.90;;;;;;5048299;28;20040;-51
2022/04/25 11:44:12;;;;;;;28.02;21.02;;;12.60;99.90;;;;;;5048016;28;20591;-51
2022/04/25 11:46:38;;;;;;;28.48;20.00;;;12.40;99.90;;;;;;5048359;28;20040;-52
2022/04/25 11:49:06;;;;;;;27.45;20.38;;;12.30;99.90;;;;;;5044407;28;20076;-52
2022/04/25 11:51:37;;;;;;;26.00;19.95;;;12.20;99.90;;;;;;5037903;28;20115;-52
2022/04/25 11:54:10;;;;;;;24.45;18.35;;;12.10;99.90;;;;;;5037314;28;20030;-51
2022/04/25 11:56:40;;;;;;;22.73;16.75;;;11.90;99.90;;;;;;5035936;28;20365;-50
2022/04/25 11:59:11;;;;;;;15.30;10.45;;;11.80;99.90;;;;;;5048184;28;20345;-51
2022/04/25 12:01:41;;;;;;;14.73;10.75;;;11.60;99.90;;;;;;5011195;28;20026;-52
2022/04/25 12:04:26;;;;;;;12.60;9.90;;;11.40;99.90;;;;;;5032194;28;20028;-53
2022/04/25 12:07:05;;;;;;;15.10;11.57;;;11.30;99.90;;;;;;5034034;28;20052;-52
2022/04/25 12:15:35;;;;;;;15.75;11.55;;;11.00;99.90;;;;;;5037934;28;20404;-53
2022/04/25 12:18:14;;;;;;;15.45;11.07;;;10.90;99.90;;;;;;5039312;28;20393;-51
2022/04/25 12:20:42;;;;;;;16.92;11.85;;;10.80;99.90;;;;;;5037568;28;20167;-53
2022/04/25 12:23:09;;;;;;;15.98;11.57;;;10.80;99.90;;;;;;5040774;28;20083;-52
2022/04/25 12:25:41;;;;;;;16.65;12.57;;;10.70;99.90;;;;;;5032375;28;20069;-51
2022/04/25 12:28:13;;;;;;;17.30;12.43;;;10.60;99.90;;;;;;5051130;28;20033;-51
2022/04/25 12:30:50;;;;;;;16.45;11.43;;;10.50;99.90;;;;;;5051356;28;20031;-51
2022/04/25 12:33:18;;;;;;;16.27;11.25;;;10.50;99.90;;;;;;5035160;28;20017;-52
2022/04/25 12:35:45;;;;;;;15.88;11.55;;;10.50;99.90;;;;;;5035744;28;20103;-50
2022/04/25 12:38:32;;;;;;;19.83;13.30;;;10.50;99.90;;;;;;5032647;28;20025;-50
2022/04/25 12:40:58;;;;;;;18.60;12.90;;;10.60;99.90;;;;;;5031524;28;20795;-51
2022/04/25 12:43:37;;;;;;;21.35;14.82;;;10.70;99.90;;;;;;5049066;28;20021;-52
2022/04/25 12:46:03;;;;;;;20.70;15.10;;;11.00;99.90;;;;;;5051119;28;20043;-51
2022/04/25 12:48:29;;;;;;;18.02;13.60;;;11.10;99.90;;;;;;5051380;28;20052;-50
2022/04/25 12:50:55;;;;;;;20.02;14.13;;;11.20;99.90;;;;;;5050505;28;20379;-52
2022/04/25 12:53:40;;;;;;;17.17;12.27;;;11.30;99.90;;;;;;5051230;28;20032;-51
2022/04/25 12:56:07;;;;;;;19.13;13.10;;;11.30;99.90;;;;;;5050564;28;20036;-52
2022/04/25 12:58:33;;;;;;;16.98;11.73;;;11.20;99.90;;;;;;5051235;28;20032;-50
2022/04/25 13:01:00;;;;;;;14.55;10.27;;;11.20;99.90;;;;;;5044228;28;20064;-51
2022/04/25 13:03:28;;;;;;;14.15;8.48;;;11.20;99.90;;;;;;5030713;28;20052;-50
2022/04/25 13:05:54;;;;;;;14.43;8.43;;;11.20;99.90;;;;;;5031154;28;20124;-51
2022/04/25 13:08:20;;;;;;;15.07;8.43;;;11.20;99.90;;;;;;5034006;28;20529;-53
2022/04/25 13:10:49;;;;;;;11.27;7.95;;;11.30;99.90;;;;;;5044991;28;20026;-53
2022/04/25 13:13:15;;;;;;;12.57;9.07;;;11.40;99.90;;;;;;5050490;28;20758;-51
2022/04/25 13:15:44;;;;;;;15.27;10.15;;;11.50;99.90;;;;;;5050758;28;20028;-52